チューク諸島 の空港の天気 - METARとTAF

チューク国際空港 ( PTKK / TKK ) - ミクロネシア連邦 チューク諸島
飛行場実況気象(Metar)
観測時間11/18 18:51 +10 (11/18 08:51 UTC)
風向・風速北東 3m/s
視程10km以上
天気現象
少しの雲 雲底高度 430m
全天の8割程度の雲 雲底高度 8840m
気温28.8℃
湿度86%
気圧1009.3hPa
METARPTKK 180851Z 04006KT 15SM FEW014 BKN290 29/26 A2980 RMK SLP093 8/101 T02880263 52017
過去の天気等 Google飛行場航空写真 Wunderground天気予報

過去48時間のMETAR

飛行場予報(TAF)
発表時間: 11/18 15:30 +10 (11/18 05:30 UTC)
予報対象時間: 18日16時 +10 ~ 19日16時 +10
風向・風速東北東 4m/s
視程10km以上
天気現象周辺でしゅう雨
少しの雲 雲底高度 460m
全天の4割程度の雲 雲底高度 1830m
全天の8割程度の雲 雲底高度 3960m
PTKK 180530Z 1806/1906 06008KT P6SM VCSH FEW015 SCT060 BKN130